Terminal Aerodrome Forecast
Issued by NWS

Home | Current Version | Previous Version | Text Only | Print | Product List | Glossary On
Versions: 1 2 3 4 5 6 7 8 9 10 11 12 13 14 15 16
000
FTUS43 KGRB 281731
TAFCWA
TAF
KCWA 281731Z 2818/2918 06007KT P6SM VCSH SCT008 OVC015
      TEMPO 2818/2822 4SM -SHRA BR OVC008
     FM282200 06007KT P6SM SCT015 BKN030
     FM290700 03004KT P6SM SCT030 BKN100
     FM291200 05005KT P6SM SCT120=

USA.gov is the U.S. government's official web portal to all federal, state and local government web resources and services.